Airfield :







YOU CAN JOIN US ON...

 
LOGIN :

Register | Disclaimer

   EN    FR    IT 

 









Legend :    VFR   Marginal VFR   IFR   Intensive IFR   Very Intensive IFR
Visi :
Ceiling :
>= 8 km
>= 3000ft
5 to 8 km
1000 to 3000 ft
1500m to 5 km
500 to 1000 ft
800 to 1500m
200 to 500 ft
< 800m
< 200 ft
Symbols :   Thunderstorms  Fog  Heavy snow  Heavy precipitations  Wind > 20 kt







- Airport Elevation : 108 ft
- IATA code : YGP


CYGP - Gaspé

CURRENT METAR :
  • 221400Z 34008G15KT 15SM SCT200 BKN220 09/02 A3019 RMK CI3CS4 SLP225

EXPIRED METARs :
  • 221300Z 32005KT 280V350 15SM BKN300 10/02 A3018 RMK CI7 SLP223
  • 221200Z 22004KT 220V300 15SM BKN230 06/03 A3016 RMK CI7 SLP216

TAF TAF CYGP
Valid from the 22 at 14:00 until the 23 at 02:00 UTC


221338Z 2214/2302 32005KT P6SM BKN300
BECMG 2214/2216 32010KT FEW230 RMK NXT FCST BY 222000Z
CZUL FIR / North America



MET'MAP, your aeronautical weather chart ! - Copyright ORBIFLY December 2007 - Disclaimer

ORBIFLY MET'MAP TEAM :

Programming & Development : Alexandra Zaïnal
Concept & Development : Baudouin d'Aumeries
Co-Development & Prog : Marc-Olivier Méhu
Technical & hardware support : Manuel Goepfert

Contact : metmap@orbifly.com




SOURCES & CREDITS :

   NOAA